createdAt,value
2024-01-26T00:02:14.578Z,5
2024-01-26T00:07:14.448Z,5
2024-01-26T00:12:14.509Z,5
2024-01-26T00:17:14.407Z,5.1
2024-01-26T00:22:14.483Z,5.1
2024-01-26T00:27:14.406Z,5.2
2024-01-26T00:32:14.454Z,5.2
2024-01-26T00:37:14.415Z,5.3
2024-01-26T00:42:14.612Z,5.3
2024-01-26T00:47:14.431Z,5.3
2024-01-26T00:52:14.413Z,5.3
2024-01-26T00:57:14.429Z,5.3
2024-01-26T01:02:14.453Z,5.3
2024-01-26T01:07:14.405Z,5.3
2024-01-26T01:12:14.399Z,5.3
2024-01-26T01:17:14.436Z,5.3
2024-01-26T01:22:14.615Z,5.4
2024-01-26T01:27:14.435Z,5.4
2024-01-26T01:32:14.618Z,5.4
2024-01-26T01:37:14.391Z,5.4
2024-01-26T01:42:14.658Z,5.4
2024-01-26T01:47:14.425Z,5.4
2024-01-26T01:52:14.623Z,5.4
2024-01-26T01:57:14.438Z,5.4
2024-01-26T02:02:14.451Z,5.5
2024-01-26T02:07:14.401Z,5.6
2024-01-26T02:12:14.414Z,5.6
2024-01-26T02:17:14.408Z,5.6
2024-01-26T02:22:14.429Z,5.6
2024-01-26T02:27:14.613Z,5.6
2024-01-26T02:32:14.427Z,5.7
2024-01-26T02:37:14.398Z,5.6
2024-01-26T02:42:14.432Z,5.6
2024-01-26T02:47:14.393Z,5.6
2024-01-26T02:52:14.466Z,5.6
2024-01-26T02:57:14.477Z,5.6
2024-01-26T03:02:14.433Z,5.6
2024-01-26T03:07:14.490Z,5.7
2024-01-26T03:12:14.509Z,5.8
2024-01-26T03:17:14.413Z,5.8
2024-01-26T03:22:14.385Z,5.9
2024-01-26T03:27:14.448Z,5.8
2024-01-26T03:32:14.413Z,5.9
2024-01-26T03:37:14.365Z,5.9
2024-01-26T03:42:14.490Z,5.9
2024-01-26T03:47:14.467Z,5.9
2024-01-26T03:52:14.665Z,5.9
2024-01-26T03:57:14.517Z,5.9
2024-01-26T04:02:14.409Z,5.9
2024-01-26T04:07:14.426Z,6
2024-01-26T04:12:14.424Z,6.1
2024-01-26T04:17:14.495Z,6.1
2024-01-26T04:22:14.419Z,6.3
2024-01-26T04:27:14.420Z,6.4
2024-01-26T04:32:14.501Z,6.6
2024-01-26T04:37:14.420Z,6.6
2024-01-26T04:42:14.439Z,6.7
2024-01-26T04:47:14.392Z,6.8
2024-01-26T04:52:14.399Z,6.8
2024-01-26T04:57:14.460Z,6.9
2024-01-26T05:02:14.601Z,6.9
2024-01-26T05:07:14.521Z,6.9
2024-01-26T05:12:14.463Z,6.9
2024-01-26T05:17:14.450Z,6.8
2024-01-26T05:22:14.438Z,6.8
2024-01-26T05:27:14.457Z,6.8
2024-01-26T05:32:14.620Z,6.8
2024-01-26T05:37:14.411Z,6.8
2024-01-26T05:42:14.474Z,6.8
2024-01-26T05:47:14.480Z,6.8
2024-01-26T05:52:14.529Z,6.9
2024-01-26T05:57:14.472Z,6.9
2024-01-26T06:02:14.677Z,7
2024-01-26T06:07:14.460Z,6.9
2024-01-26T06:12:14.483Z,7
2024-01-26T06:17:14.399Z,7.1
2024-01-26T06:22:14.512Z,7.1
2024-01-26T06:27:14.835Z,7.1
2024-01-26T06:32:14.474Z,7.2
2024-01-26T06:37:14.498Z,7.2
2024-01-26T06:42:14.462Z,7.2
2024-01-26T06:47:14.482Z,7.2
2024-01-26T06:52:14.456Z,7.2
2024-01-26T06:57:14.441Z,7.2
2024-01-26T07:02:14.433Z,7.1
2024-01-26T07:07:14.487Z,7.1
2024-01-26T07:12:14.482Z,7.2
2024-01-26T07:17:14.441Z,7.2
2024-01-26T07:22:14.458Z,7.3
2024-01-26T07:27:14.510Z,7.3
2024-01-26T07:32:14.403Z,7.3
2024-01-26T07:37:14.446Z,7.4
2024-01-26T07:42:14.537Z,7.4
2024-01-26T07:47:14.455Z,7.6
2024-01-26T07:52:14.501Z,7.6
2024-01-26T07:57:14.540Z,7.7
2024-01-26T08:02:14.492Z,7.8
2024-01-26T08:07:14.495Z,7.8
2024-01-26T08:12:20.365Z,7.9
2024-01-26T08:17:14.456Z,7.9
2024-01-26T08:22:14.465Z,7.9
2024-01-26T08:27:14.528Z,8.1
2024-01-26T08:32:14.703Z,8.2
2024-01-26T08:37:14.447Z,8.4
2024-01-26T08:42:14.517Z,8.5
2024-01-26T08:47:14.561Z,8.6
2024-01-26T08:52:14.667Z,8.8
2024-01-26T08:57:14.572Z,8.8
2024-01-26T09:02:14.702Z,8.9
2024-01-26T09:07:14.485Z,8.9
2024-01-26T09:12:14.652Z,8.9
2024-01-26T09:17:14.482Z,8.8
2024-01-26T09:22:14.455Z,8.9
2024-01-26T09:27:14.545Z,8.9
2024-01-26T09:32:14.558Z,8.8
2024-01-26T09:37:14.516Z,8.8
2024-01-26T09:42:14.571Z,8.8
2024-01-26T09:47:14.552Z,8.7
2024-01-26T09:52:14.548Z,8.7
2024-01-26T09:57:14.504Z,8.6
2024-01-26T10:02:14.458Z,8.6
2024-01-26T10:07:14.514Z,8.6
2024-01-26T10:12:14.521Z,8.5
2024-01-26T10:17:14.526Z,8.6
2024-01-26T10:22:14.457Z,8.6
2024-01-26T10:27:14.469Z,8.8
2024-01-26T10:32:14.469Z,9
2024-01-26T10:37:14.468Z,9.4
2024-01-26T10:42:14.662Z,9.6
2024-01-26T10:47:14.449Z,9.6
2024-01-26T10:52:14.667Z,9.6
2024-01-26T10:57:14.590Z,9.6
2024-01-26T11:02:14.442Z,9.8
2024-01-26T11:07:14.586Z,9.6
2024-01-26T11:12:14.473Z,9.6
2024-01-26T11:17:14.483Z,9.8
2024-01-26T11:22:14.543Z,9.8
2024-01-26T11:27:14.559Z,9.9
2024-01-26T11:32:14.479Z,9.9
2024-01-26T11:37:14.483Z,10.1
2024-01-26T11:42:14.585Z,10.1
2024-01-26T11:47:14.516Z,9.9
2024-01-26T11:52:14.471Z,9.6
2024-01-26T11:57:14.593Z,9.5
2024-01-26T12:02:14.540Z,9.5
2024-01-26T12:07:14.540Z,9.4
2024-01-26T12:12:14.500Z,9.3
2024-01-26T12:17:14.513Z,9.3
2024-01-26T12:22:14.514Z,9.3
2024-01-26T12:27:14.558Z,9.3
2024-01-26T12:32:14.598Z,9.3
2024-01-26T12:37:14.559Z,9.3
2024-01-26T12:42:14.565Z,9.3
2024-01-26T12:47:14.501Z,9.2
2024-01-26T12:52:14.471Z,9.2
2024-01-26T12:57:14.567Z,9.3
2024-01-26T13:02:14.532Z,9.3
2024-01-26T13:07:14.538Z,9.4
2024-01-26T13:12:14.543Z,9.3
2024-01-26T13:17:14.458Z,9.4
2024-01-26T13:22:14.570Z,9.4
2024-01-26T13:27:17.423Z,9.4
2024-01-26T13:32:14.541Z,9.4
2024-01-26T13:37:14.470Z,9.4
2024-01-26T13:42:14.735Z,9.5
2024-01-26T13:47:14.478Z,9.5
2024-01-26T13:52:14.502Z,9.5
2024-01-26T13:57:14.568Z,9.6
2024-01-26T14:02:14.510Z,9.6
2024-01-26T14:07:14.518Z,9.6
2024-01-26T14:12:14.499Z,9.6
2024-01-26T14:17:14.505Z,9.7
2024-01-26T14:22:14.559Z,9.7
2024-01-26T14:27:14.586Z,9.6
2024-01-26T14:32:14.532Z,9.6
2024-01-26T14:37:14.585Z,9.6
2024-01-26T14:42:14.615Z,9.6
2024-01-26T14:47:14.590Z,9.7
2024-01-26T14:52:14.786Z,9.6
2024-01-26T14:57:14.569Z,9.6
2024-01-26T15:02:14.614Z,9.6
2024-01-26T15:07:14.569Z,9.6
2024-01-26T15:12:14.786Z,9.6
2024-01-26T15:17:14.552Z,9.6
2024-01-26T15:22:14.515Z,9.6
2024-01-26T15:27:14.619Z,9.6
2024-01-26T15:32:14.722Z,9.6
2024-01-26T15:37:14.522Z,9.7
2024-01-26T15:42:14.609Z,9.6
2024-01-26T15:47:15.661Z,9.6
2024-01-26T15:52:14.918Z,9.6
2024-01-26T15:57:14.629Z,9.7
2024-01-26T16:02:14.494Z,9.6
2024-01-26T16:07:14.538Z,9.7
2024-01-26T16:12:14.539Z,9.6
2024-01-26T16:17:14.554Z,9.6
2024-01-26T16:22:14.593Z,9.6
2024-01-26T16:27:14.591Z,9.8
2024-01-26T16:32:14.572Z,9.6
2024-01-26T16:37:14.563Z,8.9
2024-01-26T16:42:14.555Z,8.7
2024-01-26T16:47:14.523Z,8.4
2024-01-26T16:52:14.538Z,8.2
2024-01-26T16:57:14.575Z,8
2024-01-26T17:02:14.566Z,7.8
2024-01-26T17:07:14.519Z,7.9
2024-01-26T17:12:14.585Z,7.8
2024-01-26T17:17:14.535Z,7.7
2024-01-26T17:22:14.553Z,7.6
2024-01-26T17:27:14.553Z,7.6
2024-01-26T17:32:14.562Z,7.4
2024-01-26T17:37:14.642Z,7.3
2024-01-26T17:42:14.555Z,7.1
2024-01-26T17:47:14.540Z,7
2024-01-26T17:52:14.537Z,6.8
2024-01-26T17:57:14.589Z,6.6
2024-01-26T18:02:14.579Z,6.4
2024-01-26T18:07:14.583Z,6.4
2024-01-26T18:12:14.596Z,6.4
2024-01-26T18:17:14.572Z,6.4
2024-01-26T18:22:14.624Z,6.3
2024-01-26T18:27:14.679Z,6.1
2024-01-26T18:32:14.780Z,6
2024-01-26T18:37:14.617Z,5.9
2024-01-26T18:42:14.538Z,5.9
2024-01-26T18:47:14.586Z,6
2024-01-26T18:52:14.601Z,5.8
2024-01-26T18:57:14.632Z,5.8
2024-01-26T19:02:14.561Z,5.6
2024-01-26T19:07:14.563Z,5.6
2024-01-26T19:12:14.578Z,5.5
2024-01-26T19:17:14.576Z,5.5
2024-01-26T19:22:14.556Z,5.3
2024-01-26T19:27:14.688Z,5.1
2024-01-26T19:32:14.606Z,5.1
2024-01-26T19:37:14.577Z,5.1
2024-01-26T19:42:14.570Z,5.3
2024-01-26T19:47:14.596Z,5.1
2024-01-26T19:52:14.646Z,5.1
2024-01-26T19:57:14.630Z,4.9
2024-01-26T20:02:14.645Z,4.8
2024-01-26T20:07:14.592Z,4.9
2024-01-26T20:12:14.649Z,4.9
2024-01-26T20:17:14.571Z,4.7
2024-01-26T20:22:14.594Z,4.8
2024-01-26T20:27:14.689Z,4.8
2024-01-26T20:32:14.571Z,4.6
2024-01-26T20:37:16.062Z,4.6
2024-01-26T20:42:14.845Z,4.7
2024-01-26T20:47:14.565Z,4.8
2024-01-26T20:52:14.602Z,4.6
2024-01-26T20:57:14.565Z,4.5
2024-01-26T21:02:14.769Z,4.4
2024-01-26T21:07:14.753Z,4.3
2024-01-26T21:12:14.592Z,4.3
2024-01-26T21:17:14.602Z,4.4
2024-01-26T21:22:14.583Z,4.4
2024-01-26T21:27:14.731Z,4.4
2024-01-26T21:32:14.580Z,4.4
2024-01-26T21:37:14.569Z,4.4
2024-01-26T21:42:14.627Z,4.4
2024-01-26T21:47:14.656Z,4.4
2024-01-26T21:52:14.557Z,4.3
2024-01-26T21:57:14.683Z,4.2
2024-01-26T22:02:14.537Z,4.2
2024-01-26T22:07:14.602Z,4.2
2024-01-26T22:12:14.685Z,4.3
2024-01-26T22:17:14.651Z,4.2
2024-01-26T22:22:14.606Z,4.1
2024-01-26T22:27:14.690Z,4.2
2024-01-26T22:32:14.589Z,4.2
2024-01-26T22:37:14.581Z,4.1
2024-01-26T22:42:14.750Z,4.2
2024-01-26T22:47:14.563Z,4.1
2024-01-26T22:52:14.599Z,4
2024-01-26T22:57:14.595Z,4.1
2024-01-26T23:02:14.575Z,4.3
2024-01-26T23:07:14.606Z,4.3
2024-01-26T23:12:14.669Z,4.3
2024-01-26T23:17:14.658Z,4.3
2024-01-26T23:22:14.609Z,4.4
2024-01-26T23:27:14.630Z,4.3
2024-01-26T23:32:14.583Z,4.3
2024-01-26T23:37:14.614Z,4.3
2024-01-26T23:42:14.664Z,4.1
2024-01-26T23:47:14.580Z,3.9
2024-01-26T23:52:14.635Z,3.8
2024-01-26T23:57:14.596Z,3.8
